Crestview Terrace, Illinois
Current Conditions -  °F | °C
As of 4:35 AM on Saturday 22 Nov 2014 (Local Time) from KFWC Reporting Station
Scattered Clouds Scattered Clouds  
Wind Chill: 39°   Ceiling: Unl
Heat Index: 42°   Visibility: 10mi
Dew Point: 32°   Wind: 6mph
Humidity: 68%   Direction: 160°SSE
Pressure: 30.19"   Gusts: NA
Location:  38.3669°N, 88.3516°W
Report Text: KFWC 221035Z AUTO 16005KT 10SM SCT090 06/00 A3019 RMK AO1 T00570002
Loading
Personal Weather Stations






























Interactive Weather Map New forecast layout! Learn more

10-Day Weather Forecast

Advertisements
Track Severe Weather on mobile